Airfield :
LOGIN :

Register | Disclaimer

   EN    FR    IT 

 










Legend :    VFR   Marginal VFR   IFR   Intensive IFR   Very Intensive IFR
Visi :
Ceiling :
>= 8 km
>= 3000ft
5 to 8 km
1000 to 3000 ft
1500m to 5 km
500 to 1000 ft
800 to 1500m
200 to 500 ft
< 800m
< 200 ft
Symbols :   Thunderstorms  Fog  Heavy snow  Heavy precipitations  Wind > 20 kt
SIGMETs :     Misc.  Thunderstorms  Icing  Turbulence  Mountain Waves  Volcanic Ashes







- Airport Elevation : 236 ft
- IATA code : MMX


ESMS - Malmö Sturup

CURRENT METAR :
  • 231350Z VRB02KT CAVOK 10/M03 Q1023 R88/09//95

EXPIRED METARs :
  • 231320Z 07003KT 010V120 CAVOK 11/M02 Q1023 R88/09//95
  • 231250Z 07003KT 030V120 CAVOK 11/M01 Q1023 R88/09//95
  • 231220Z 09004KT CAVOK 10/M02 Q1024 R88/09//95
  • 231150Z 11004KT 070V140 CAVOK 10/M01 Q1024 R88/09//95
  • 231120Z 15005KT CAVOK 10/M01 Q1024 R88/09//95

TAF TAF ESMS
Valid from the 23 at 12:00 until the 24 at 12:00 UTC


231110Z 2312/2412 VRB06KT 9999 FEW040
TEMPO 2403/2408 1200 BCFG
No reported NOTAMs for that airfield.



MET'MAP, your aeronautical weather chart ! - Copyright ORBIFLY December 2007 - Disclaimer

ORBIFLY MET'MAP TEAM :

Programming & Development : Alexandra Zaïnal
Concept & Development : Baudouin d'Aumeries
Co-Development & Prog : Marc-Olivier Méhu
Technical & hardware support : Manuel Goepfert

Contact : metmap@orbifly.com




SOURCES & CREDITS :

   NOAA